createdAt,value
2018-10-09T00:01:18.466Z,8.73
2018-10-09T00:03:45.742Z,8.50
2018-10-09T00:06:12.940Z,8.67
2018-10-09T00:08:40.087Z,9.13
2018-10-09T00:11:07.446Z,11.80
2018-10-09T00:13:34.608Z,7.80
2018-10-09T00:16:01.759Z,11.53
2018-10-09T00:18:28.886Z,11.70
2018-10-09T00:20:56.095Z,8.80
2018-10-09T00:23:23.294Z,9.00
2018-10-09T00:25:50.490Z,8.93
2018-10-09T00:28:17.618Z,9.23
2018-10-09T00:30:44.764Z,14.03
2018-10-09T00:33:11.893Z,7.90
2018-10-09T00:35:39.054Z,7.90
2018-10-09T00:38:06.170Z,9.57
2018-10-09T00:40:33.319Z,9.20
2018-10-09T00:43:00.465Z,8.80
2018-10-09T00:45:27.579Z,8.93
2018-10-09T00:47:54.788Z,10.87
2018-10-09T00:50:21.998Z,8.27
2018-10-09T00:52:49.090Z,10.47
2018-10-09T00:55:16.283Z,9.77
2018-10-09T00:57:43.443Z,10.07
2018-10-09T01:00:10.673Z,8.40
2018-10-09T01:02:37.836Z,8.47
2018-10-09T01:05:04.977Z,8.83
2018-10-09T01:07:32.110Z,8.33
2018-10-09T01:09:59.261Z,8.97
2018-10-09T01:12:26.396Z,9.03
2018-10-09T01:14:53.538Z,9.10
2018-10-09T01:17:20.689Z,9.03
2018-10-09T01:19:47.965Z,10.23
2018-10-09T01:22:15.110Z,8.70
2018-10-09T01:24:42.281Z,13.97
2018-10-09T01:27:09.729Z,9.00
2018-10-09T01:29:36.985Z,8.57
2018-10-09T01:32:04.169Z,9.87
2018-10-09T01:34:31.325Z,9.07
2018-10-09T01:36:58.476Z,9.90
2018-10-09T01:39:25.652Z,8.03
2018-10-09T01:41:52.769Z,8.57
2018-10-09T01:44:19.950Z,9.83
2018-10-09T01:46:47.150Z,10.03
2018-10-09T01:49:14.320Z,9.93
2018-10-09T01:51:41.486Z,9.80
2018-10-09T01:54:08.655Z,10.27
2018-10-09T01:56:36.113Z,10.33
2018-10-09T01:59:03.305Z,10.73
2018-10-09T02:01:30.476Z,11.80
2018-10-09T02:03:57.591Z,12.37
2018-10-09T02:06:24.717Z,9.17
2018-10-09T02:08:51.859Z,12.83
2018-10-09T02:11:19.009Z,20.20
2018-10-09T02:13:46.177Z,12.00
2018-10-09T02:16:13.330Z,9.07
2018-10-09T02:18:40.798Z,8.83
2018-10-09T02:21:07.922Z,8.50
2018-10-09T02:23:35.102Z,8.57
2018-10-09T02:26:02.234Z,8.83
2018-10-09T02:28:29.390Z,8.77
2018-10-09T02:30:56.518Z,8.30
2018-10-09T02:33:23.723Z,7.97
2018-10-09T02:35:50.832Z,8.83
2018-10-09T02:38:17.984Z,7.77
2018-10-09T02:40:45.133Z,8.00
2018-10-09T02:43:12.245Z,8.50
2018-10-09T02:45:39.366Z,8.10
2018-10-09T02:48:06.494Z,10.63
2018-10-09T02:50:33.848Z,8.73
2018-10-09T02:53:00.995Z,9.70
2018-10-09T02:55:28.127Z,8.57
2018-10-09T02:57:55.282Z,8.50
2018-10-09T03:00:22.436Z,9.27
2018-10-09T03:02:49.518Z,7.97
2018-10-09T03:05:16.622Z,8.07
2018-10-09T03:07:43.716Z,8.37
2018-10-09T03:10:10.864Z,8.23
2018-10-09T03:12:37.928Z,8.93
2018-10-09T03:15:05.267Z,12.47
2018-10-09T03:17:32.422Z,9.17
2018-10-09T03:19:59.561Z,13.30
2018-10-09T03:22:26.789Z,7.33
2018-10-09T03:24:53.917Z,7.80
2018-10-09T03:27:21.050Z,8.43
2018-10-09T03:29:48.139Z,8.87
2018-10-09T03:32:15.257Z,8.80
2018-10-09T03:34:42.337Z,11.57
2018-10-09T03:37:09.473Z,7.70
2018-10-09T03:39:36.572Z,7.90
2018-10-09T03:42:04.056Z,7.67
2018-10-09T03:44:31.246Z,8.20
2018-10-09T03:46:58.412Z,9.50
2018-10-09T03:49:25.676Z,8.40
2018-10-09T03:51:52.906Z,10.30
2018-10-09T03:54:20.033Z,12.70
2018-10-09T03:56:47.142Z,8.30
2018-10-09T03:59:14.505Z,8.33
2018-10-09T04:01:41.644Z,9.53
2018-10-09T04:04:08.787Z,8.03
2018-10-09T04:06:35.940Z,8.13
2018-10-09T04:09:05.679Z,12.63
2018-10-09T04:11:32.800Z,8.57
2018-10-09T04:14:00.031Z,10.60
2018-10-09T04:16:27.126Z,8.60
2018-10-09T04:18:54.257Z,11.53
2018-10-09T04:21:21.388Z,9.13
2018-10-09T04:23:48.576Z,8.87
2018-10-09T04:26:15.685Z,8.57
2018-10-09T04:28:42.882Z,9.30
2018-10-09T04:31:10.004Z,8.53
2018-10-09T04:33:37.157Z,12.13
2018-10-09T04:36:04.255Z,13.33
2018-10-09T04:38:31.400Z,11.60
2018-10-09T04:40:58.607Z,12.03
2018-10-09T04:43:25.765Z,8.93
2018-10-09T04:45:52.881Z,10.10
2018-10-09T04:48:20.028Z,13.27
2018-10-09T04:50:47.129Z,64.13
2018-10-09T04:53:14.402Z,22.13
2018-10-09T04:55:41.507Z,21.90
2018-10-09T04:58:08.632Z,28.03
2018-10-09T05:00:35.853Z,29.03
2018-10-09T05:03:03.028Z,23.87
2018-10-09T05:05:30.157Z,15.97
2018-10-09T05:07:57.998Z,14.43
2018-10-09T05:10:25.193Z,12.13
2018-10-09T05:12:52.279Z,19.10
2018-10-09T05:15:20.310Z,15.47
2018-10-09T05:17:47.621Z,13.10
2018-10-09T05:20:14.726Z,10.33
2018-10-09T05:22:41.876Z,10.30
2018-10-09T05:25:09.174Z,8.60
2018-10-09T05:27:36.477Z,11.10
2018-10-09T05:30:03.636Z,17.48
2018-10-09T05:32:30.721Z,9.67
2018-10-09T05:34:57.882Z,10.97
2018-10-09T05:37:24.980Z,12.40
2018-10-09T05:39:52.174Z,11.10
2018-10-09T05:42:19.332Z,14.43
2018-10-09T05:44:46.493Z,9.80
2018-10-09T05:47:13.757Z,20.23
2018-10-09T05:49:40.826Z,11.33
2018-10-09T05:52:08.193Z,17.77
2018-10-09T05:54:35.668Z,12.83
2018-10-09T05:57:02.889Z,11.87
2018-10-09T05:59:29.971Z,12.53
2018-10-09T06:01:57.185Z,12.13
2018-10-09T06:04:24.335Z,13.53
2018-10-09T06:06:51.435Z,12.77
2018-10-09T06:09:18.640Z,14.30
2018-10-09T06:11:45.793Z,12.00
2018-10-09T06:14:12.940Z,13.33
2018-10-09T06:16:40.851Z,13.23
2018-10-09T06:19:08.052Z,14.30
2018-10-09T06:21:35.262Z,14.60
2018-10-09T06:24:02.408Z,16.87
2018-10-09T06:26:29.546Z,13.87
2018-10-09T06:28:56.757Z,20.47
2018-10-09T06:31:24.050Z,18.30
2018-10-09T06:33:51.286Z,12.60
2018-10-09T06:36:18.490Z,16.83
2018-10-09T06:38:45.710Z,18.60
2018-10-09T06:41:12.855Z,16.80
2018-10-09T06:43:40.017Z,13.50
2018-10-09T06:46:07.168Z,15.40
2018-10-09T06:48:34.365Z,14.70
2018-10-09T06:51:01.501Z,15.93
2018-10-09T06:53:28.912Z,14.63
2018-10-09T06:55:56.109Z,14.30
2018-10-09T06:58:23.296Z,17.60
2018-10-09T07:00:50.488Z,20.33
2018-10-09T07:03:18.178Z,17.50
2018-10-09T07:05:45.572Z,15.37
2018-10-09T07:08:13.460Z,16.90
2018-10-09T07:10:40.679Z,18.30
2018-10-09T07:13:07.857Z,17.93
2018-10-09T07:15:35.093Z,17.67
2018-10-09T07:18:02.244Z,18.67
2018-10-09T07:20:29.412Z,18.13
2018-10-09T07:22:56.620Z,16.73
2018-10-09T07:25:23.820Z,17.67
2018-10-09T07:27:51.027Z,23.00
2018-10-09T07:30:18.298Z,23.40
2018-10-09T07:32:45.586Z,19.80
2018-10-09T07:35:13.076Z,19.47
2018-10-09T07:37:40.286Z,19.90
2018-10-09T07:40:07.484Z,18.70
2018-10-09T07:42:34.711Z,24.53
2018-10-09T07:45:02.462Z,26.90
2018-10-09T07:47:32.781Z,21.37
2018-10-09T07:50:00.083Z,21.63
2018-10-09T07:52:27.365Z,21.93
2018-10-09T07:54:54.538Z,23.63
2018-10-09T07:57:21.873Z,25.70
2018-10-09T07:59:49.014Z,35.87
2018-10-09T08:02:16.170Z,24.43
2018-10-09T08:04:43.734Z,26.57
2018-10-09T08:07:10.982Z,26.97
2018-10-09T08:09:38.285Z,26.70
2018-10-09T08:12:05.470Z,24.33
2018-10-09T08:14:32.638Z,28.80
2018-10-09T08:16:59.969Z,27.63
2018-10-09T08:19:27.139Z,35.03
2018-10-09T08:21:54.333Z,31.13
2018-10-09T08:24:21.585Z,30.70
2018-10-09T08:26:48.820Z,30.63
2018-10-09T08:29:15.969Z,30.37
2018-10-09T08:31:43.094Z,34.03
2018-10-09T08:34:10.392Z,31.83
2018-10-09T08:36:37.494Z,32.10
2018-10-09T08:39:05.158Z,30.23
2018-10-09T08:41:32.398Z,29.60
2018-10-09T08:43:59.562Z,35.13
2018-10-09T08:46:26.841Z,29.80
2018-10-09T08:48:53.978Z,31.90
2018-10-09T08:51:21.139Z,29.87
2018-10-09T08:53:48.360Z,53.03
2018-10-09T08:56:15.720Z,31.87
2018-10-09T08:58:43.020Z,29.30
2018-10-09T09:01:10.170Z,38.57
2018-10-09T09:03:37.379Z,33.53
2018-10-09T09:06:04.517Z,44.20
2018-10-09T09:08:31.817Z,32.57
2018-10-09T09:10:58.972Z,32.83
2018-10-09T09:13:26.116Z,34.70
2018-10-09T09:15:54.204Z,33.53
2018-10-09T09:18:21.328Z,41.40
2018-10-09T09:20:48.943Z,37.23
2018-10-09T09:23:16.141Z,32.13
2018-10-09T09:25:43.373Z,31.30
2018-10-09T09:28:10.558Z,32.27
2018-10-09T09:30:37.767Z,44.00
2018-10-09T09:33:05.009Z,28.57
2018-10-09T09:35:32.208Z,31.70
2018-10-09T09:37:59.392Z,37.70
2018-10-09T09:40:26.574Z,31.40
2018-10-09T09:42:53.779Z,28.67
2018-10-09T09:45:20.901Z,29.67
2018-10-09T09:47:48.182Z,25.43
2018-10-09T09:50:15.316Z,24.93
2018-10-09T09:52:42.478Z,24.87
2018-10-09T09:55:09.619Z,28.13
2018-10-09T09:57:36.749Z,22.13
2018-10-09T10:00:04.036Z,24.00
2018-10-09T10:02:31.269Z,20.73
2018-10-09T10:04:58.663Z,24.33
2018-10-09T10:07:26.186Z,24.70
2018-10-09T10:09:53.424Z,21.83
2018-10-09T10:12:20.576Z,20.53
2018-10-09T10:14:47.657Z,19.70
2018-10-09T10:17:14.783Z,22.47
2018-10-09T10:19:41.983Z,25.33
2018-10-09T10:22:09.167Z,19.57
2018-10-09T10:24:36.561Z,21.97
2018-10-09T10:27:03.666Z,20.27
2018-10-09T10:29:30.757Z,20.40
2018-10-09T10:31:58.332Z,21.70
2018-10-09T10:34:25.447Z,19.00
2018-10-09T10:36:52.615Z,22.83
2018-10-09T10:39:19.861Z,20.30
2018-10-09T10:41:46.956Z,20.57
2018-10-09T10:44:14.151Z,17.93
2018-10-09T10:46:41.758Z,19.00
2018-10-09T10:49:11.128Z,19.50
2018-10-09T10:51:38.396Z,21.83
2018-10-09T10:54:05.633Z,20.00
2018-10-09T10:56:33.101Z,16.50
2018-10-09T10:59:00.285Z,17.63
2018-10-09T11:01:27.717Z,21.63
2018-10-09T11:03:55.429Z,22.00
2018-10-09T11:06:22.773Z,17.20
2018-10-09T11:08:49.951Z,16.20
2018-10-09T11:11:17.890Z,16.13
2018-10-09T11:13:45.173Z,19.80
2018-10-09T11:16:12.355Z,19.73
2018-10-09T11:18:39.585Z,21.33
2018-10-09T11:21:07.223Z,16.43
2018-10-09T11:23:34.368Z,18.53
2018-10-09T11:26:01.678Z,20.00
2018-10-09T11:28:28.897Z,15.87
2018-10-09T11:30:56.098Z,17.80
2018-10-09T11:33:23.292Z,16.20
2018-10-09T11:35:50.454Z,15.50
2018-10-09T11:38:17.642Z,17.33
2018-10-09T11:40:44.862Z,15.10
2018-10-09T11:43:12.003Z,15.73
2018-10-09T11:45:39.638Z,21.20
2018-10-09T11:48:06.802Z,17.00
2018-10-09T11:50:33.954Z,16.50
2018-10-09T11:53:01.316Z,20.43
2018-10-09T11:55:28.525Z,17.63
2018-10-09T11:57:56.958Z,20.40
2018-10-09T12:00:24.470Z,21.10
2018-10-09T12:02:51.961Z,21.00
2018-10-09T12:05:19.078Z,17.30
2018-10-09T12:07:46.362Z,17.90
2018-10-09T12:10:14.069Z,18.80
2018-10-09T12:12:41.351Z,19.00
2018-10-09T12:15:08.646Z,17.30
2018-10-09T12:17:35.771Z,18.83
2018-10-09T12:20:03.050Z,19.90
2018-10-09T12:22:30.207Z,18.93
2018-10-09T12:24:57.332Z,17.60
2018-10-09T12:27:24.498Z,20.37
2018-10-09T12:29:51.933Z,18.30
2018-10-09T12:32:19.158Z,27.27
2018-10-09T12:34:46.400Z,19.10
2018-10-09T12:37:13.518Z,18.30
2018-10-09T12:39:40.763Z,20.83
2018-10-09T12:42:07.918Z,17.87
2018-10-09T12:44:35.026Z,19.07
2018-10-09T12:47:02.187Z,19.10
2018-10-09T12:49:29.506Z,16.80
2018-10-09T12:51:56.649Z,19.47
2018-10-09T12:54:23.805Z,19.07
2018-10-09T12:56:51.030Z,18.10
2018-10-09T12:59:18.230Z,19.37
2018-10-09T13:01:45.399Z,22.80
2018-10-09T13:04:12.649Z,18.90
2018-10-09T13:06:39.836Z,16.63
2018-10-09T13:09:08.444Z,17.50
2018-10-09T13:11:35.762Z,17.80
2018-10-09T13:14:02.990Z,19.30
2018-10-09T13:16:30.136Z,19.40
2018-10-09T13:18:57.318Z,22.20
2018-10-09T13:21:24.698Z,18.77
2018-10-09T13:23:51.806Z,21.60
2018-10-09T13:26:19.106Z,17.20
2018-10-09T13:28:46.278Z,16.90
2018-10-09T13:31:13.397Z,16.83
2018-10-09T13:33:40.565Z,17.33
2018-10-09T13:36:07.755Z,16.57
2018-10-09T13:38:34.422Z,19.13
2018-10-09T13:41:01.661Z,18.30
2018-10-09T13:43:28.762Z,18.40
2018-10-09T13:45:55.867Z,15.90
2018-10-09T13:48:23.115Z,16.07
2018-10-09T13:50:50.331Z,21.70
2018-10-09T13:53:17.900Z,16.60
2018-10-09T13:55:45.093Z,16.20
2018-10-09T13:58:12.225Z,17.80
2018-10-09T14:00:39.451Z,16.43
2018-10-09T14:03:07.083Z,20.70
2018-10-09T14:05:34.378Z,24.17
2018-10-09T14:08:01.626Z,16.33
2018-10-09T14:10:28.757Z,24.83
2018-10-09T14:12:56.284Z,17.60
2018-10-09T14:15:23.422Z,15.70
2018-10-09T14:17:50.616Z,21.93
2018-10-09T14:20:17.771Z,20.70
2018-10-09T14:22:45.091Z,19.17
2018-10-09T14:25:12.832Z,20.30
2018-10-09T14:27:40.006Z,17.60
2018-10-09T14:30:07.209Z,19.30
2018-10-09T14:32:35.115Z,24.73
2018-10-09T14:35:02.375Z,19.27
2018-10-09T14:37:29.454Z,20.20
2018-10-09T14:39:56.633Z,21.27
2018-10-09T14:42:23.746Z,17.67
2018-10-09T14:44:50.889Z,20.93
2018-10-09T14:47:18.001Z,22.27
2018-10-09T14:49:45.133Z,27.97
2018-10-09T14:52:12.322Z,19.87
2018-10-09T14:54:39.553Z,19.53
2018-10-09T14:57:07.130Z,21.90
2018-10-09T14:59:34.338Z,20.83
2018-10-09T15:02:01.516Z,28.67
2018-10-09T15:04:28.793Z,27.33
2018-10-09T15:06:56.619Z,21.30
2018-10-09T15:09:23.836Z,22.63
2018-10-09T15:11:51.045Z,20.80
2018-10-09T15:14:18.243Z,24.47
2018-10-09T15:16:45.418Z,19.63
2018-10-09T15:19:12.511Z,23.10
2018-10-09T15:21:39.666Z,21.40
2018-10-09T15:24:06.868Z,23.77
2018-10-09T15:26:34.002Z,23.80
2018-10-09T15:29:01.218Z,24.13
2018-10-09T15:31:28.422Z,21.10
2018-10-09T15:33:55.559Z,24.40
2018-10-09T15:36:22.855Z,24.03
2018-10-09T15:38:50.123Z,23.30
2018-10-09T15:41:17.641Z,23.87
2018-10-09T15:43:44.739Z,24.00
2018-10-09T15:46:11.921Z,28.00
2018-10-09T15:48:39.195Z,23.53
2018-10-09T15:51:06.419Z,23.60
2018-10-09T15:53:33.956Z,26.70
2018-10-09T15:56:01.090Z,35.20
2018-10-09T15:58:28.523Z,28.07
2018-10-09T16:00:55.699Z,30.70
2018-10-09T16:03:22.978Z,33.23
2018-10-09T16:05:50.169Z,29.60
2018-10-09T16:08:17.729Z,33.97
2018-10-09T16:10:44.909Z,36.63
2018-10-09T16:13:12.067Z,38.67
2018-10-09T16:15:39.621Z,34.13
2018-10-09T16:18:06.781Z,32.47
2018-10-09T16:20:34.340Z,40.00
2018-10-09T16:23:01.504Z,36.10
2018-10-09T16:25:28.724Z,36.83
2018-10-09T16:27:55.958Z,31.27
2018-10-09T16:30:23.315Z,33.90
2018-10-09T16:32:51.676Z,30.70
2018-10-09T16:35:18.847Z,31.80
2018-10-09T16:37:45.964Z,33.40
2018-10-09T16:40:13.158Z,34.03
2018-10-09T16:42:40.306Z,35.00
2018-10-09T16:45:07.470Z,34.60
2018-10-09T16:47:34.729Z,39.30
2018-10-09T16:50:01.910Z,32.70
2018-10-09T16:52:29.052Z,32.27
2018-10-09T16:54:56.228Z,43.53
2018-10-09T16:57:25.894Z,32.33
2018-10-09T16:59:53.630Z,32.33
2018-10-09T17:02:20.830Z,41.97
2018-10-09T17:04:48.081Z,32.63
2018-10-09T17:07:15.315Z,32.03
2018-10-09T17:09:42.662Z,32.10
2018-10-09T17:12:09.873Z,33.03
2018-10-09T17:14:37.017Z,32.13
2018-10-09T17:17:04.260Z,34.60
2018-10-09T17:19:31.461Z,37.23
2018-10-09T17:21:58.606Z,30.63
2018-10-09T17:24:25.819Z,31.03
2018-10-09T17:26:52.953Z,32.47
2018-10-09T17:29:20.164Z,29.63
2018-10-09T17:31:47.451Z,30.43
2018-10-09T17:34:14.683Z,33.13
2018-10-09T17:36:41.936Z,34.40
2018-10-09T17:39:10.250Z,32.80
2018-10-09T17:41:37.730Z,33.47
2018-10-09T17:44:04.876Z,35.53
2018-10-09T17:46:32.195Z,31.33
2018-10-09T17:48:59.218Z,51.03
2018-10-09T17:51:26.470Z,33.00
2018-10-09T17:53:53.643Z,33.87
2018-10-09T17:56:20.725Z,35.20
2018-10-09T17:58:47.944Z,30.60
2018-10-09T18:01:15.134Z,30.70
2018-10-09T18:03:42.269Z,29.10
2018-10-09T18:06:09.410Z,28.63
2018-10-09T18:08:36.616Z,25.93
2018-10-09T18:11:03.928Z,27.07
2018-10-09T18:13:31.136Z,29.00
2018-10-09T18:15:58.281Z,25.17
2018-10-09T18:18:25.487Z,30.43
2018-10-09T18:20:52.932Z,26.00
2018-10-09T18:23:20.166Z,26.93
2018-10-09T18:25:47.493Z,27.07
2018-10-09T18:28:14.644Z,24.30
2018-10-09T18:30:41.871Z,22.23
2018-10-09T18:33:09.086Z,23.60
2018-10-09T18:35:36.229Z,26.57
2018-10-09T18:38:03.538Z,22.70
2018-10-09T18:40:30.765Z,23.63
2018-10-09T18:42:58.101Z,22.63
2018-10-09T18:45:25.241Z,27.80
2018-10-09T18:47:52.551Z,23.07
2018-10-09T18:50:19.815Z,22.27
2018-10-09T18:52:47.197Z,22.37
2018-10-09T18:55:15.887Z,24.40
2018-10-09T18:57:43.418Z,23.77
2018-10-09T19:00:10.919Z,26.20
2018-10-09T19:02:39.070Z,22.03
2018-10-09T19:05:07.080Z,23.10
2018-10-09T19:07:34.265Z,25.00
2018-10-09T19:10:01.721Z,25.90
2018-10-09T19:12:29.100Z,24.50
2018-10-09T19:14:56.478Z,23.60
2018-10-09T19:17:23.766Z,23.13
2018-10-09T19:19:51.235Z,23.33
2018-10-09T19:22:18.859Z,24.47
2018-10-09T19:24:46.315Z,27.73
2018-10-09T19:27:14.009Z,23.70
2018-10-09T19:29:41.236Z,21.33
2018-10-09T19:32:08.407Z,26.00
2018-10-09T19:34:35.756Z,25.40
2018-10-09T19:37:03.062Z,23.30
2018-10-09T19:39:30.286Z,22.40
2018-10-09T19:41:57.527Z,23.43
2018-10-09T19:44:25.001Z,23.80
2018-10-09T19:46:52.271Z,25.40
2018-10-09T19:49:19.444Z,27.23
2018-10-09T19:51:46.755Z,22.90
2018-10-09T19:54:13.906Z,26.47
2018-10-09T19:56:41.369Z,24.23
2018-10-09T19:59:09.123Z,24.10
2018-10-09T20:01:36.692Z,29.70
2018-10-09T20:04:04.598Z,29.07
2018-10-09T20:06:32.048Z,24.60
2018-10-09T20:08:59.262Z,26.77
2018-10-09T20:11:26.939Z,26.70
2018-10-09T20:13:54.529Z,28.07
2018-10-09T20:16:21.889Z,24.63
2018-10-09T20:18:49.231Z,28.07
2018-10-09T20:21:16.427Z,24.70
2018-10-09T20:23:43.683Z,28.73
2018-10-09T20:26:11.547Z,31.23
2018-10-09T20:28:38.739Z,23.80
2018-10-09T20:31:05.918Z,24.07
2018-10-09T20:33:33.418Z,22.73
2018-10-09T20:36:00.599Z,25.60
2018-10-09T20:38:27.808Z,25.83
2018-10-09T20:40:55.449Z,25.37
2018-10-09T20:43:22.781Z,23.80
2018-10-09T20:45:50.021Z,23.27
2018-10-09T20:48:17.293Z,23.80
2018-10-09T20:50:44.443Z,23.07
2018-10-09T20:53:11.780Z,29.57
2018-10-09T20:55:38.978Z,24.77
2018-10-09T20:58:06.209Z,23.37
2018-10-09T21:00:33.373Z,26.43
2018-10-09T21:03:00.982Z,24.47
2018-10-09T21:05:28.539Z,22.27
2018-10-09T21:07:55.731Z,26.23
2018-10-09T21:10:22.915Z,23.10
2018-10-09T21:12:50.095Z,22.57
2018-10-09T21:15:17.305Z,22.90
2018-10-09T21:17:44.722Z,24.73
2018-10-09T21:20:11.863Z,27.47
2018-10-09T21:22:39.100Z,23.93
2018-10-09T21:25:06.454Z,23.03
2018-10-09T21:27:33.687Z,25.13
2018-10-09T21:30:00.974Z,23.87
2018-10-09T21:32:28.251Z,25.03
2018-10-09T21:34:55.485Z,27.10
2018-10-09T21:37:23.203Z,32.90
2018-10-09T21:39:50.454Z,26.07
2018-10-09T21:42:17.749Z,23.60
2018-10-09T21:44:44.966Z,25.20
2018-10-09T21:47:12.366Z,22.77
2018-10-09T21:49:39.556Z,24.20
2018-10-09T21:52:06.722Z,23.23
2018-10-09T21:54:33.915Z,25.53
2018-10-09T21:57:01.130Z,21.20
2018-10-09T21:59:28.372Z,23.10
2018-10-09T22:01:55.556Z,26.47
2018-10-09T22:04:22.717Z,24.03
2018-10-09T22:06:49.860Z,25.10
2018-10-09T22:09:17.069Z,24.00
2018-10-09T22:11:44.262Z,24.10
2018-10-09T22:14:11.437Z,22.10
2018-10-09T22:16:38.614Z,24.73
2018-10-09T22:19:05.991Z,22.57
2018-10-09T22:21:33.190Z,22.10
2018-10-09T22:24:00.484Z,23.30
2018-10-09T22:26:27.661Z,22.23
2018-10-09T22:28:54.815Z,23.90
2018-10-09T22:31:21.975Z,23.37
2018-10-09T22:33:49.132Z,27.67
2018-10-09T22:36:16.319Z,22.30
2018-10-09T22:38:43.532Z,21.83
2018-10-09T22:41:10.688Z,22.60
2018-10-09T22:43:37.903Z,23.50
2018-10-09T22:46:05.058Z,21.13
2018-10-09T22:48:32.234Z,22.80
2018-10-09T22:50:59.618Z,22.70
2018-10-09T22:53:27.196Z,25.53
2018-10-09T22:55:54.352Z,21.67
2018-10-09T22:58:21.613Z,24.27
2018-10-09T23:00:48.860Z,22.27
2018-10-09T23:03:16.005Z,25.93
2018-10-09T23:05:43.125Z,23.40
2018-10-09T23:08:10.255Z,22.00
2018-10-09T23:10:37.378Z,24.83
2018-10-09T23:13:04.597Z,24.67
2018-10-09T23:15:31.719Z,23.23
2018-10-09T23:17:58.872Z,23.33
2018-10-09T23:20:26.140Z,23.87
2018-10-09T23:22:53.326Z,25.00
2018-10-09T23:25:20.623Z,22.07
2018-10-09T23:27:47.851Z,25.33
2018-10-09T23:30:15.036Z,23.50
2018-10-09T23:32:42.233Z,22.27
2018-10-09T23:35:09.479Z,21.53
2018-10-09T23:37:37.459Z,27.13
2018-10-09T23:40:04.656Z,25.87
2018-10-09T23:42:31.790Z,24.00
2018-10-09T23:44:58.979Z,26.37
2018-10-09T23:47:26.113Z,26.20
2018-10-09T23:49:53.247Z,26.93
2018-10-09T23:52:20.458Z,22.90
2018-10-09T23:54:47.607Z,23.17
2018-10-09T23:57:14.791Z,22.53
2018-10-09T23:59:41.909Z,26.57
